sensor_id;sensor_type;location;lat;lon;timestamp;pressure;altitude;pressure_sealevel;temperature;humidity
48527;BME280;34317;51.660;5.824;2023-08-17T00:01:45;101907.63;;;22.66;48.25
48527;BME280;34317;51.660;5.824;2023-08-17T00:04:11;101907.63;;;22.66;48.34
48527;BME280;34317;51.660;5.824;2023-08-17T00:06:38;101905.88;;;22.65;48.33
48527;BME280;34317;51.660;5.824;2023-08-17T00:09:06;101906.88;;;22.64;48.29
48527;BME280;34317;51.660;5.824;2023-08-17T00:11:33;101911.56;;;22.62;48.33
48527;BME280;34317;51.660;5.824;2023-08-17T00:14:00;101913.38;;;22.62;48.38
48527;BME280;34317;51.660;5.824;2023-08-17T00:16:27;101918.88;;;22.60;48.31
48527;BME280;34317;51.660;5.824;2023-08-17T00:18:54;101921.75;;;22.59;48.46
48527;BME280;34317;51.660;5.824;2023-08-17T00:21:21;101914.59;;;22.58;48.42
48527;BME280;34317;51.660;5.824;2023-08-17T00:23:48;101906.63;;;22.56;48.40
48527;BME280;34317;51.660;5.824;2023-08-17T00:26:16;101913.88;;;22.55;48.34
48527;BME280;34317;51.660;5.824;2023-08-17T00:28:43;101913.00;;;22.55;48.48
48527;BME280;34317;51.660;5.824;2023-08-17T00:31:10;101904.91;;;22.55;48.54
48527;BME280;34317;51.660;5.824;2023-08-17T00:33:38;101899.63;;;22.53;48.46
48527;BME280;34317;51.660;5.824;2023-08-17T00:36:07;101896.09;;;22.53;48.50
48527;BME280;34317;51.660;5.824;2023-08-17T00:38:34;101892.66;;;22.51;48.43
48527;BME280;34317;51.660;5.824;2023-08-17T00:41:01;101894.56;;;22.49;48.40
48527;BME280;34317;51.660;5.824;2023-08-17T00:43:28;101884.03;;;22.46;48.47
48527;BME280;34317;51.660;5.824;2023-08-17T00:45:55;101887.81;;;22.43;48.58
48527;BME280;34317;51.660;5.824;2023-08-17T00:48:22;101879.13;;;22.40;48.49
48527;BME280;34317;51.660;5.824;2023-08-17T00:50:50;101876.78;;;22.35;48.53
48527;BME280;34317;51.660;5.824;2023-08-17T00:53:19;101880.59;;;22.32;48.61
48527;BME280;34317;51.660;5.824;2023-08-17T00:55:48;101872.72;;;22.29;48.57
48527;BME280;34317;51.660;5.824;2023-08-17T00:58:17;101878.34;;;22.26;48.58
48527;BME280;34317;51.660;5.824;2023-08-17T01:00:44;101876.84;;;22.22;48.56
48527;BME280;34317;51.660;5.824;2023-08-17T01:03:11;101877.09;;;22.19;48.63
48527;BME280;34317;51.660;5.824;2023-08-17T01:05:38;101872.91;;;22.15;48.57
48527;BME280;34317;51.660;5.824;2023-08-17T01:08:05;101875.84;;;22.12;48.66
48527;BME280;34317;51.660;5.824;2023-08-17T01:10:39;101879.78;;;22.08;48.70
48527;BME280;34317;51.660;5.824;2023-08-17T01:13:09;101881.84;;;22.04;48.71
48527;BME280;34317;51.660;5.824;2023-08-17T01:15:40;101883.91;;;22.01;48.74
48527;BME280;34317;51.660;5.824;2023-08-17T01:18:11;101886.84;;;21.97;48.81
48527;BME280;34317;51.660;5.824;2023-08-17T01:20:41;101887.84;;;21.96;48.92
48527;BME280;34317;51.660;5.824;2023-08-17T01:23:09;101897.88;;;21.94;48.83
48527;BME280;34317;51.660;5.824;2023-08-17T01:25:36;101891.72;;;21.92;49.03
48527;BME280;34317;51.660;5.824;2023-08-17T01:28:03;101886.56;;;21.89;48.82
48527;BME280;34317;51.660;5.824;2023-08-17T01:30:33;101874.31;;;21.85;48.79
48527;BME280;34317;51.660;5.824;2023-08-17T01:33:03;101879.94;;;21.82;48.78
48527;BME280;34317;51.660;5.824;2023-08-17T01:38:20;101885.16;;;21.72;48.91
48527;BME280;34317;51.660;5.824;2023-08-17T01:40:48;101877.41;;;21.68;48.91
48527;BME280;34317;51.660;5.824;2023-08-17T01:43:16;101876.91;;;21.63;48.96
48527;BME280;34317;51.660;5.824;2023-08-17T01:45:43;101880.69;;;21.60;48.99
48527;BME280;34317;51.660;5.824;2023-08-17T01:48:10;101879.31;;;21.54;48.85
48527;BME280;34317;51.660;5.824;2023-08-17T01:50:37;101879.66;;;21.50;48.99
48527;BME280;34317;51.660;5.824;2023-08-17T01:53:04;101877.31;;;21.45;49.02
48527;BME280;34317;51.660;5.824;2023-08-17T01:55:32;101871.13;;;21.43;49.13
48527;BME280;34317;51.660;5.824;2023-08-17T01:57:59;101875.78;;;21.41;49.09
48527;BME280;34317;51.660;5.824;2023-08-17T02:00:26;101876.03;;;21.38;49.19
48527;BME280;34317;51.660;5.824;2023-08-17T02:02:53;101878.94;;;21.35;49.25
48527;BME280;34317;51.660;5.824;2023-08-17T02:05:20;101879.91;;;21.34;49.32
48527;BME280;34317;51.660;5.824;2023-08-17T02:07:46;101877.34;;;21.32;49.16
48527;BME280;34317;51.660;5.824;2023-08-17T02:10:14;101878.41;;;21.30;49.30
48527;BME280;34317;51.660;5.824;2023-08-17T02:12:40;101888.44;;;21.28;49.29
48527;BME280;34317;51.660;5.824;2023-08-17T02:15:08;101896.75;;;21.25;49.25
48527;BME280;34317;51.660;5.824;2023-08-17T02:17:35;101893.31;;;21.23;49.28
48527;BME280;34317;51.660;5.824;2023-08-17T02:20:02;101893.44;;;21.21;49.34
48527;BME280;34317;51.660;5.824;2023-08-17T02:22:30;101895.25;;;21.20;49.42
48527;BME280;34317;51.660;5.824;2023-08-17T02:24:57;101898.94;;;21.19;49.41
48527;BME280;34317;51.660;5.824;2023-08-17T02:27:24;101898.94;;;21.19;49.41
48527;BME280;34317;51.660;5.824;2023-08-17T02:29:52;101893.56;;;21.19;49.39
48527;BME280;34317;51.660;5.824;2023-08-17T02:32:20;101884.72;;;21.17;49.40
48527;BME280;34317;51.660;5.824;2023-08-17T02:34:47;101888.38;;;21.16;49.48
48527;BME280;34317;51.660;5.824;2023-08-17T02:37:14;101884.94;;;21.14;49.55
48527;BME280;34317;51.660;5.824;2023-08-17T02:39:41;101881.28;;;21.15;49.52
48527;BME280;34317;51.660;5.824;2023-08-17T02:42:08;101881.28;;;21.15;49.49
48527;BME280;34317;51.660;5.824;2023-08-17T02:44:35;101877.59;;;21.16;49.62
48527;BME280;34317;51.660;5.824;2023-08-17T02:47:02;101875.91;;;21.15;49.58
48527;BME280;34317;51.660;5.824;2023-08-17T02:49:29;101879.56;;;21.14;49.58
48527;BME280;34317;51.660;5.824;2023-08-17T02:51:56;101872.44;;;21.13;49.61
48527;BME280;34317;51.660;5.824;2023-08-17T02:54:23;101866.19;;;21.13;49.57
48527;BME280;34317;51.660;5.824;2023-08-17T02:56:49;101865.34;;;21.12;49.54
48527;BME280;34317;51.660;5.824;2023-08-17T02:59:17;101861.91;;;21.10;49.53
48527;BME280;34317;51.660;5.824;2023-08-17T03:01:45;101862.13;;;21.07;49.61
48527;BME280;34317;51.660;5.824;2023-08-17T03:04:13;101865.78;;;21.06;49.55
48527;BME280;34317;51.660;5.824;2023-08-17T03:06:40;101861.63;;;21.02;49.50
48527;BME280;34317;51.660;5.824;2023-08-17T03:09:06;101860.84;;;21.00;49.55
48527;BME280;34317;51.660;5.824;2023-08-17T03:11:34;101861.06;;;20.97;49.55
48527;BME280;34317;51.660;5.824;2023-08-17T03:14:01;101855.91;;;20.94;49.62
48527;BME280;34317;51.660;5.824;2023-08-17T03:16:29;101861.53;;;20.91;49.61
48527;BME280;34317;51.660;5.824;2023-08-17T03:18:59;101867.13;;;20.88;49.61
48527;BME280;34317;51.660;5.824;2023-08-17T03:21:26;101861.94;;;20.85;49.69
48527;BME280;34317;51.660;5.824;2023-08-17T03:23:55;101863.91;;;20.83;49.74
48527;BME280;34317;51.660;5.824;2023-08-17T03:26:22;101857.88;;;20.79;49.63
48527;BME280;34317;51.660;5.824;2023-08-17T03:28:49;101855.28;;;20.77;49.63
48527;BME280;34317;51.660;5.824;2023-08-17T03:31:16;101861.75;;;20.75;49.82
48527;BME280;34317;51.660;5.824;2023-08-17T03:33:43;101864.56;;;20.73;49.76
48527;BME280;34317;51.660;5.824;2023-08-17T03:36:10;101855.75;;;20.71;49.75
48527;BME280;34317;51.660;5.824;2023-08-17T03:38:37;101863.06;;;20.69;49.85
48527;BME280;34317;51.660;5.824;2023-08-17T03:41:06;101850.59;;;20.68;49.85
48527;BME280;34317;51.660;5.824;2023-08-17T03:43:33;101848.84;;;20.67;50.05
48527;BME280;34317;51.660;5.824;2023-08-17T03:46:01;101852.28;;;20.69;50.03
48527;BME280;34317;51.660;5.824;2023-08-17T03:48:28;101855.00;;;20.69;50.04
48527;BME280;34317;51.660;5.824;2023-08-17T03:50:55;101852.28;;;20.69;50.05
48527;BME280;34317;51.660;5.824;2023-08-17T03:53:22;101861.13;;;20.71;50.12
48527;BME280;34317;51.660;5.824;2023-08-17T03:55:49;101854.03;;;20.70;50.00
48527;BME280;34317;51.660;5.824;2023-08-17T03:58:17;101848.66;;;20.70;50.11
48527;BME280;34317;51.660;5.824;2023-08-17T04:00:51;101854.03;;;20.70;49.97
48527;BME280;34317;51.660;5.824;2023-08-17T04:03:24;101856.72;;;20.70;50.05
48527;BME280;34317;51.660;5.824;2023-08-17T04:05:51;101857.69;;;20.69;50.13
48527;BME280;34317;51.660;5.824;2023-08-17T04:08:18;101856.94;;;20.67;50.10
48527;BME280;34317;51.660;5.824;2023-08-17T04:10:45;101856.19;;;20.65;50.03
48527;BME280;34317;51.660;5.824;2023-08-17T04:13:11;101863.50;;;20.63;50.25
48527;BME280;34317;51.660;5.824;2023-08-17T04:15:38;101863.50;;;20.63;50.00
48527;BME280;34317;51.660;5.824;2023-08-17T04:18:05;101860.06;;;20.61;50.17
48527;BME280;34317;51.660;5.824;2023-08-17T04:20:32;101866.47;;;20.58;50.24
48527;BME280;34317;51.660;5.824;2023-08-17T04:22:59;101865.63;;;20.58;50.19
48527;BME280;34317;51.660;5.824;2023-08-17T04:25:26;101877.50;;;20.55;50.25
48527;BME280;34317;51.660;5.824;2023-08-17T04:27:53;101872.31;;;20.52;50.19
48527;BME280;34317;51.660;5.824;2023-08-17T04:30:20;101876.09;;;20.50;50.23
48527;BME280;34317;51.660;5.824;2023-08-17T04:32:53;101876.19;;;20.48;50.16
48527;BME280;34317;51.660;5.824;2023-08-17T04:35:21;101879.97;;;20.46;50.19
48527;BME280;34317;51.660;5.824;2023-08-17T04:37:48;101881.88;;;20.43;50.31
48527;BME280;34317;51.660;5.824;2023-08-17T04:40:15;101881.13;;;20.41;50.26
48527;BME280;34317;51.660;5.824;2023-08-17T04:42:42;101884.06;;;20.38;50.26
48527;BME280;34317;51.660;5.824;2023-08-17T04:45:10;101886.00;;;20.36;50.33
48527;BME280;34317;51.660;5.824;2023-08-17T04:47:40;101882.56;;;20.34;50.32
48527;BME280;34317;51.660;5.824;2023-08-17T04:50:07;101881.78;;;20.32;50.32
48527;BME280;34317;51.660;5.824;2023-08-17T04:52:34;101877.38;;;20.31;50.35
48527;BME280;34317;51.660;5.824;2023-08-17T04:55:02;101878.34;;;20.30;50.50
48527;BME280;34317;51.660;5.824;2023-08-17T04:57:31;101874.69;;;20.31;50.54
48527;BME280;34317;51.660;5.824;2023-08-17T04:59:58;101878.34;;;20.30;50.37
48527;BME280;34317;51.660;5.824;2023-08-17T05:02:25;101883.72;;;20.30;50.56
48527;BME280;34317;51.660;5.824;2023-08-17T05:04:52;101883.72;;;20.30;50.47
48527;BME280;34317;51.660;5.824;2023-08-17T05:07:19;101883.72;;;20.30;50.54
48527;BME280;34317;51.660;5.824;2023-08-17T05:09:46;101874.69;;;20.31;50.56
48527;BME280;34317;51.660;5.824;2023-08-17T05:12:13;101874.47;;;20.34;50.64
48527;BME280;34317;51.660;5.824;2023-08-17T05:14:40;101872.53;;;20.36;50.70
48527;BME280;34317;51.660;5.824;2023-08-17T05:17:07;101873.28;;;20.38;50.57
48527;BME280;34317;51.660;5.824;2023-08-17T05:19:35;101877.69;;;20.39;50.74
48527;BME280;34317;51.660;5.824;2023-08-17T05:22:02;101882.00;;;20.42;50.74
48527;BME280;34317;51.660;5.824;2023-08-17T05:24:29;101882.66;;;20.46;50.76
48527;BME280;34317;51.660;5.824;2023-08-17T05:26:56;101877.03;;;20.49;50.83
48527;BME280;34317;51.660;5.824;2023-08-17T05:29:23;101885.66;;;20.54;50.74
48527;BME280;34317;51.660;5.824;2023-08-17T05:31:50;101881.78;;;20.58;50.72
48527;BME280;34317;51.660;5.824;2023-08-17T05:34:17;101883.31;;;20.62;50.83
48527;BME280;34317;51.660;5.824;2023-08-17T05:36:45;101874.03;;;20.66;50.77
48527;BME280;34317;51.660;5.824;2023-08-17T05:39:12;101872.13;;;20.68;50.79
48527;BME280;34317;51.660;5.824;2023-08-17T05:41:39;101868.25;;;20.72;50.80
48527;BME280;34317;51.660;5.824;2023-08-17T05:44:06;101871.69;;;20.74;50.77
48527;BME280;34317;51.660;5.824;2023-08-17T05:46:33;101873.28;;;20.77;50.73
48527;BME280;34317;51.660;5.824;2023-08-17T05:49:01;101874.91;;;20.79;50.69
48527;BME280;34317;51.660;5.824;2023-08-17T05:51:28;101880.06;;;20.83;50.81
48527;BME280;34317;51.660;5.824;2023-08-17T05:53:55;101880.81;;;20.85;50.80
48527;BME280;34317;51.660;5.824;2023-08-17T05:56:22;101877.91;;;20.88;50.79
48527;BME280;34317;51.660;5.824;2023-08-17T05:58:49;101885.00;;;20.89;50.70
48527;BME280;34317;51.660;5.824;2023-08-17T06:01:16;101883.94;;;20.91;50.86
48527;BME280;34317;51.660;5.824;2023-08-17T06:03:43;101884.56;;;20.95;50.77
48527;BME280;34317;51.660;5.824;2023-08-17T06:06:11;101895.84;;;21.00;50.77
48527;BME280;34317;51.660;5.824;2023-08-17T06:08:37;101900.06;;;21.04;50.90
48527;BME280;34317;51.660;5.824;2023-08-17T06:11:04;101897.88;;;21.09;50.75
48527;BME280;34317;51.660;5.824;2023-08-17T06:13:31;101895.72;;;21.14;50.82
48527;BME280;34317;51.660;5.824;2023-08-17T06:15:58;101895.50;;;21.17;50.90
48527;BME280;34317;51.660;5.824;2023-08-17T06:18:25;101900.44;;;21.24;50.92
48527;BME280;34317;51.660;5.824;2023-08-17T06:20:52;101899.97;;;21.30;50.84
48527;BME280;34317;51.660;5.824;2023-08-17T06:23:20;101892.41;;;21.35;50.96
48527;BME280;34317;51.660;5.824;2023-08-17T06:25:47;101896.59;;;21.39;50.91
48527;BME280;34317;51.660;5.824;2023-08-17T06:28:14;101897.16;;;21.44;50.92
48527;BME280;34317;51.660;5.824;2023-08-17T06:30:41;101903.06;;;21.49;50.90
48527;BME280;34317;51.660;5.824;2023-08-17T06:33:08;101902.72;;;21.54;50.81
48527;BME280;34317;51.660;5.824;2023-08-17T06:35:35;101905.06;;;21.58;50.83
48527;BME280;34317;51.660;5.824;2023-08-17T06:38:02;101901.19;;;21.63;50.93
48527;BME280;34317;51.660;5.824;2023-08-17T06:40:29;101900.94;;;21.66;50.76
48527;BME280;34317;51.660;5.824;2023-08-17T06:42:56;101903.53;;;21.67;50.76
48527;BME280;34317;51.660;5.824;2023-08-17T06:45:23;101902.66;;;21.67;50.61
48527;BME280;34317;51.660;5.824;2023-08-17T06:47:50;101898.03;;;21.69;50.74
48527;BME280;34317;51.660;5.824;2023-08-17T06:50:17;101896.81;;;21.73;50.74
48527;BME280;34317;51.660;5.824;2023-08-17T06:52:44;101889.47;;;21.75;50.67
48527;BME280;34317;51.660;5.824;2023-08-17T06:55:11;101892.88;;;21.77;50.76
48527;BME280;34317;51.660;5.824;2023-08-17T06:57:38;101892.88;;;21.77;50.78
48527;BME280;34317;51.660;5.824;2023-08-17T07:00:05;101901.72;;;21.79;50.83
48527;BME280;34317;51.660;5.824;2023-08-17T07:02:32;101903.47;;;21.80;50.74
48527;BME280;34317;51.660;5.824;2023-08-17T07:05:17;101898.91;;;21.81;50.70
48527;BME280;34317;51.660;5.824;2023-08-17T07:07:44;101904.41;;;21.79;50.73
48527;BME280;34317;51.660;5.824;2023-08-17T07:10:12;101905.41;;;21.78;50.63
48527;BME280;34317;51.660;5.824;2023-08-17T07:12:39;101914.25;;;21.80;50.69
48527;BME280;34317;51.660;5.824;2023-08-17T07:15:06;101911.56;;;21.80;50.66
48527;BME280;34317;51.660;5.824;2023-08-17T07:17:33;101906.03;;;21.82;50.66
48527;BME280;34317;51.660;5.824;2023-08-17T07:20:04;101907.75;;;21.83;50.73
48527;BME280;34317;51.660;5.824;2023-08-17T07:22:34;101912.06;;;21.85;50.73
48527;BME280;34317;51.660;5.824;2023-08-17T07:25:01;101913.78;;;21.86;50.89
48527;BME280;34317;51.660;5.824;2023-08-17T07:27:29;101926.03;;;21.90;50.81
48527;BME280;34317;51.660;5.824;2023-08-17T07:29:56;101915.25;;;21.90;50.84
48527;BME280;34317;51.660;5.824;2023-08-17T07:32:22;101920.66;;;21.90;50.73
48527;BME280;34317;51.660;5.824;2023-08-17T07:34:51;101920.66;;;21.90;50.77
48527;BME280;34317;51.660;5.824;2023-08-17T07:37:19;101922.38;;;21.91;50.82
48527;BME280;34317;51.660;5.824;2023-08-17T07:39:46;101922.38;;;21.91;50.78
48527;BME280;34317;51.660;5.824;2023-08-17T07:42:13;101921.66;;;21.89;50.70
48527;BME280;34317;51.660;5.824;2023-08-17T07:44:40;101923.25;;;21.92;50.75
48527;BME280;34317;51.660;5.824;2023-08-17T07:47:07;101918.69;;;21.92;50.79
48527;BME280;34317;51.660;5.824;2023-08-17T07:49:34;101918.69;;;21.92;50.73
48527;BME280;34317;51.660;5.824;2023-08-17T07:52:01;101904.47;;;21.90;50.79
48527;BME280;34317;51.660;5.824;2023-08-17T07:54:28;101909.63;;;21.93;50.89
48527;BME280;34317;51.660;5.824;2023-08-17T07:56:55;101910.38;;;21.95;50.89
48527;BME280;34317;51.660;5.824;2023-08-17T07:59:21;101914.81;;;21.96;50.87
48527;BME280;34317;51.660;5.824;2023-08-17T08:01:48;101920.94;;;21.99;50.78
48527;BME280;34317;51.660;5.824;2023-08-17T08:04:15;101925.34;;;22.00;50.84
48527;BME280;34317;51.660;5.824;2023-08-17T08:06:42;101924.50;;;21.99;50.66
48527;BME280;34317;51.660;5.824;2023-08-17T08:09:09;101921.91;;;21.97;50.78
48527;BME280;34317;51.660;5.824;2023-08-17T08:11:36;101932.69;;;21.97;50.86
48527;BME280;34317;51.660;5.824;2023-08-17T08:14:03;101927.09;;;22.01;50.92
48527;BME280;34317;51.660;5.824;2023-08-17T08:16:30;101933.22;;;22.03;50.90
48527;BME280;34317;51.660;5.824;2023-08-17T08:18:57;101939.34;;;22.05;50.89
48527;BME280;34317;51.660;5.824;2023-08-17T08:21:24;101928.56;;;22.05;50.81
48527;BME280;34317;51.660;5.824;2023-08-17T08:23:53;101937.63;;;22.04;50.87
48527;BME280;34317;51.660;5.824;2023-08-17T08:26:20;101932.22;;;22.04;50.79
48527;BME280;34317;51.660;5.824;2023-08-17T08:28:47;101931.25;;;22.05;50.77
48527;BME280;34317;51.660;5.824;2023-08-17T08:31:14;101935.69;;;22.06;50.92
48527;BME280;34317;51.660;5.824;2023-08-17T08:33:40;101930.03;;;22.09;50.94
48527;BME280;34317;51.660;5.824;2023-08-17T08:36:07;101922.69;;;22.11;51.08
48527;BME280;34317;51.660;5.824;2023-08-17T08:38:34;101914.38;;;22.14;50.88
48527;BME280;34317;51.660;5.824;2023-08-17T08:41:02;101926.13;;;22.13;50.85
48527;BME280;34317;51.660;5.824;2023-08-17T08:43:29;101928.81;;;22.13;50.91
48527;BME280;34317;51.660;5.824;2023-08-17T08:45:56;101934.97;;;22.15;50.84
48527;BME280;34317;51.660;5.824;2023-08-17T08:48:25;101934.09;;;22.14;50.82
48527;BME280;34317;51.660;5.824;2023-08-17T08:50:54;101922.47;;;22.14;50.90
48527;BME280;34317;51.660;5.824;2023-08-17T08:53:28;101931.53;;;22.13;50.80
48527;BME280;34317;51.660;5.824;2023-08-17T08:56:02;101924.16;;;22.15;50.95
48527;BME280;34317;51.660;5.824;2023-08-17T08:58:31;101934.09;;;22.14;50.99
48527;BME280;34317;51.660;5.824;2023-08-17T09:00:58;101920.50;;;22.16;51.10
48527;BME280;34317;51.660;5.824;2023-08-17T09:03:25;101920.28;;;22.19;51.03
48527;BME280;34317;51.660;5.824;2023-08-17T09:05:52;101920.03;;;22.22;51.03
48527;BME280;34317;51.660;5.824;2023-08-17T09:08:27;101917.22;;;22.24;51.07
48527;BME280;34317;51.660;5.824;2023-08-17T09:10:55;101915.06;;;22.29;51.04
48527;BME280;34317;51.660;5.824;2023-08-17T09:13:22;101917.38;;;22.33;51.02
48527;BME280;34317;51.660;5.824;2023-08-17T09:15:49;101910.91;;;22.36;51.01
48527;BME280;34317;51.660;5.824;2023-08-17T09:18:16;101918.00;;;22.37;51.02
48527;BME280;34317;51.660;5.824;2023-08-17T09:20:45;101908.81;;;22.40;51.11
48527;BME280;34317;51.660;5.824;2023-08-17T09:25:42;101905.88;;;22.43;51.16
48527;BME280;34317;51.660;5.824;2023-08-17T09:28:10;101901.31;;;22.43;51.03
48527;BME280;34317;51.660;5.824;2023-08-17T09:33:35;101903.66;;;22.48;51.09
48527;BME280;34317;51.660;5.824;2023-08-17T09:36:02;101888.09;;;22.51;51.16
48527;BME280;34317;51.660;5.824;2023-08-17T09:38:29;101893.13;;;22.56;51.33
48527;BME280;34317;51.660;5.824;2023-08-17T09:40:57;101898.06;;;22.62;51.23
48527;BME280;34317;51.660;5.824;2023-08-17T09:43:24;101900.50;;;22.65;51.13
48527;BME280;34317;51.660;5.824;2023-08-17T09:45:55;101896.81;;;22.66;51.07
48527;BME280;34317;51.660;5.824;2023-08-17T09:48:22;101891.16;;;22.69;51.46
48527;BME280;34317;51.660;5.824;2023-08-17T09:50:51;101889.69;;;22.77;51.16
48527;BME280;34317;51.660;5.824;2023-08-17T09:53:18;101889.19;;;22.83;51.32
48527;BME280;34317;51.660;5.824;2023-08-17T09:55:45;101893.13;;;22.90;51.02
48527;BME280;34317;51.660;5.824;2023-08-17T09:58:13;101899.00;;;22.95;51.02
48527;BME280;34317;51.660;5.824;2023-08-17T10:00:45;101890.69;;;22.98;51.19
48527;BME280;34317;51.660;5.824;2023-08-17T10:03:17;101890.19;;;23.04;51.21
48527;BME280;34317;51.660;5.824;2023-08-17T10:05:46;101891.66;;;23.08;50.95
48527;BME280;34317;51.660;5.824;2023-08-17T10:08:15;101891.16;;;23.15;50.99
48527;BME280;34317;51.660;5.824;2023-08-17T10:10:45;101888.69;;;23.23;51.35
48527;BME280;34317;51.660;5.824;2023-08-17T10:13:32;101885.25;;;23.32;51.27
48527;BME280;34317;51.660;5.824;2023-08-17T10:18:54;101876.09;;;23.44;50.98
48527;BME280;34317;51.660;5.824;2023-08-17T10:21:24;101882.94;;;23.48;50.98
48527;BME280;34317;51.660;5.824;2023-08-17T10:23:57;101878.28;;;23.50;50.85
48527;BME280;34317;51.660;5.824;2023-08-17T10:26:24;101871.16;;;23.49;50.81
48527;BME280;34317;51.660;5.824;2023-08-17T10:28:52;101868.47;;;23.49;51.06
48527;BME280;34317;51.660;5.824;2023-08-17T10:31:21;101868.47;;;23.49;50.79
48527;BME280;34317;51.660;5.824;2023-08-17T10:33:48;101871.03;;;23.51;50.97
48527;BME280;34317;51.660;5.824;2023-08-17T10:36:15;101867.47;;;23.50;50.96
48527;BME280;34317;51.660;5.824;2023-08-17T10:38:43;101870.16;;;23.50;50.96
48527;BME280;34317;51.660;5.824;2023-08-17T10:41:11;101857.38;;;23.52;50.94
48527;BME280;34317;51.660;5.824;2023-08-17T10:43:52;101862.78;;;23.52;50.94
48527;BME280;34317;51.660;5.824;2023-08-17T10:46:19;101864.50;;;23.54;50.86
48527;BME280;34317;51.660;5.824;2023-08-17T10:48:46;101864.25;;;23.57;51.12
48527;BME280;34317;51.660;5.824;2023-08-17T10:51:13;101868.41;;;23.61;51.06
48527;BME280;34317;51.660;5.824;2023-08-17T10:53:42;101874.56;;;23.63;50.96
48527;BME280;34317;51.660;5.824;2023-08-17T10:56:13;101870.84;;;23.64;50.83
48527;BME280;34317;51.660;5.824;2023-08-17T10:58:42;101865.44;;;23.64;50.70
48527;BME280;34317;51.660;5.824;2023-08-17T11:01:09;101867.16;;;23.65;50.82
48527;BME280;34317;51.660;5.824;2023-08-17T11:03:37;101866.91;;;23.68;50.89
48527;BME280;34317;51.660;5.824;2023-08-17T11:06:14;101864.94;;;23.70;50.76
48527;BME280;34317;51.660;5.824;2023-08-17T11:08:52;101869.47;;;23.69;50.97
48527;BME280;34317;51.660;5.824;2023-08-17T11:11:20;101872.06;;;23.71;50.96
48527;BME280;34317;51.660;5.824;2023-08-17T11:13:48;101874.63;;;23.73;50.80
48527;BME280;34317;51.660;5.824;2023-08-17T11:16:21;101862.69;;;23.75;50.82
48527;BME280;34317;51.660;5.824;2023-08-17T11:18:50;101873.25;;;23.78;50.91
48527;BME280;34317;51.660;5.824;2023-08-17T11:21:18;101860.22;;;23.83;50.82
48527;BME280;34317;51.660;5.824;2023-08-17T11:23:46;101868.22;;;23.85;50.97
48527;BME280;34317;51.660;5.824;2023-08-17T11:26:16;101872.38;;;23.89;51.04
48527;BME280;34317;51.660;5.824;2023-08-17T11:28:44;101878.38;;;23.93;50.99
48527;BME280;34317;51.660;5.824;2023-08-17T11:31:12;101876.13;;;23.98;50.82
48527;BME280;34317;51.660;5.824;2023-08-17T11:33:40;101878.59;;;24.01;50.73
48527;BME280;34317;51.660;5.824;2023-08-17T11:36:07;101880.31;;;24.02;50.76
48527;BME280;34317;51.660;5.824;2023-08-17T11:38:35;101881.16;;;24.02;50.67
48527;BME280;34317;51.660;5.824;2023-08-17T11:41:03;101884.00;;;24.01;50.88
48527;BME280;34317;51.660;5.824;2023-08-17T11:43:31;101885.72;;;24.02;50.69
48527;BME280;34317;51.660;5.824;2023-08-17T11:45:59;101876.59;;;24.03;50.94
48527;BME280;34317;51.660;5.824;2023-08-17T11:48:27;101878.34;;;24.04;50.84
48527;BME280;34317;51.660;5.824;2023-08-17T11:50:54;101876.88;;;24.00;50.77
48527;BME280;34317;51.660;5.824;2023-08-17T11:53:22;101877.38;;;23.94;50.76
48527;BME280;34317;51.660;5.824;2023-08-17T11:55:49;101865.09;;;23.89;50.82
48527;BME280;34317;51.660;5.824;2023-08-17T11:58:35;101873.94;;;23.92;50.92
48527;BME280;34317;51.660;5.824;2023-08-17T12:01:02;101871.25;;;23.92;50.84
48527;BME280;34317;51.660;5.824;2023-08-17T12:03:29;101873.94;;;23.92;51.00
48527;BME280;34317;51.660;5.824;2023-08-17T12:05:57;101868.28;;;23.95;50.98
48527;BME280;34317;51.660;5.824;2023-08-17T12:08:24;101867.75;;;24.01;51.26
48527;BME280;34317;51.660;5.824;2023-08-17T12:10:51;101864.38;;;24.08;51.11
48527;BME280;34317;51.660;5.824;2023-08-17T12:13:18;101865.69;;;24.14;51.14
48527;BME280;34317;51.660;5.824;2023-08-17T12:15:45;101868.16;;;24.17;50.97
48527;BME280;34317;51.660;5.824;2023-08-17T12:18:12;101869.72;;;24.20;50.93
48527;BME280;34317;51.660;5.824;2023-08-17T12:20:42;101871.34;;;24.22;51.08
48527;BME280;34317;51.660;5.824;2023-08-17T12:23:12;101870.31;;;24.23;51.04
48527;BME280;34317;51.660;5.824;2023-08-17T12:25:39;101864.91;;;24.23;51.01
48527;BME280;34317;51.660;5.824;2023-08-17T12:28:06;101868.63;;;24.22;50.84
48527;BME280;34317;51.660;5.824;2023-08-17T12:30:33;101872.31;;;24.21;51.03
48527;BME280;34317;51.660;5.824;2023-08-17T12:33:02;101864.19;;;24.21;50.91
48527;BME280;34317;51.660;5.824;2023-08-17T12:35:31;101864.19;;;24.21;50.80
48527;BME280;34317;51.660;5.824;2023-08-17T12:37:58;101869.59;;;24.21;50.80
48527;BME280;34317;51.660;5.824;2023-08-17T12:40:25;101871.34;;;24.22;50.72
48527;BME280;34317;51.660;5.824;2023-08-17T12:42:52;101867.88;;;24.20;50.79
48527;BME280;34317;51.660;5.824;2023-08-17T12:45:19;101870.56;;;24.20;50.80
48527;BME280;34317;51.660;5.824;2023-08-17T12:47:46;101865.16;;;24.20;50.93
48527;BME280;34317;51.660;5.824;2023-08-17T12:50:13;101864.19;;;24.21;51.05
48527;BME280;34317;51.660;5.824;2023-08-17T12:52:40;101869.34;;;24.24;51.06
48527;BME280;34317;51.660;5.824;2023-08-17T12:55:12;101870.06;;;24.26;51.05
48527;BME280;34317;51.660;5.824;2023-08-17T12:57:39;101865.38;;;24.28;51.17
48527;BME280;34317;51.660;5.824;2023-08-17T13:00:06;101871.75;;;24.27;50.73
48527;BME280;34317;51.660;5.824;2023-08-17T13:02:33;101869.06;;;24.27;50.85
48527;BME280;34317;51.660;5.824;2023-08-17T13:05:00;101875.75;;;24.23;50.73